Time;durP1;ratioP1;P1;durP2;ratioP2;P2;SDS_P1;SDS_P2;PMS_P1;PMS_P2;Temp;Humidity;BMP_temperature;BMP_pressure;BME280_temperature;BME280_humidity;BME280_pressure;Samples;Min_cycle;Max_cycle;Signal;HPM_P1;HPM_P2
2024/04/17 00:01:46;;;;;;;33.80;19.50;;;;;;;2.27;75.64;95828.23;104703;1279;100651;-75
2024/04/17 00:04:12;;;;;;;24.70;12.80;;;;;;;2.28;75.71;95821.16;104749;1260;99314;-75
2024/04/17 00:06:38;;;;;;;18.70;10.70;;;;;;;2.30;75.81;95818.58;104645;1270;100569;-75
2024/04/17 00:09:05;;;;;;;17.20;10.10;;;;;;;2.27;75.74;95814.23;104713;1263;99196;-75
2024/04/17 00:11:31;;;;;;;19.60;11.10;;;;;;;2.19;75.74;95818.98;104670;1270;99245;-75
2024/04/17 00:13:58;;;;;;;13.50;8.50;;;;;;;2.18;75.81;95814.92;104726;1262;99241;-75
2024/04/17 00:16:24;;;;;;;14.00;8.40;;;;;;;2.20;75.88;95814.92;104664;1270;99357;-76
2024/04/17 00:18:50;;;;;;;15.60;8.40;;;;;;;2.23;75.90;95806.92;104714;1257;99304;-76
2024/04/17 00:21:17;;;;;;;16.70;9.60;;;;;;;2.25;75.88;95799.40;104656;1264;99347;-75
2024/04/17 00:23:43;;;;;;;19.80;11.50;;;;;;;2.29;75.94;95799.41;104710;1263;99323;-76
2024/04/17 00:26:10;;;;;;;35.40;22.70;;;;;;;2.25;75.96;95799.80;104681;1260;99954;-80
2024/04/17 00:28:36;;;;;;;35.20;23.20;;;;;;;2.21;75.90;95794.58;104768;1270;99349;-80
2024/04/17 00:31:02;;;;;;;37.30;23.50;;;;;;;2.20;75.92;95797.16;104717;1271;99263;-80
2024/04/17 00:33:29;;;;;;;24.60;16.80;;;;;;;2.19;76.00;95798.04;104711;1267;99602;-80
2024/04/17 00:35:55;;;;;;;35.10;23.70;;;;;;;2.17;76.15;95795.79;104614;1270;100478;-80
2024/04/17 00:38:21;;;;;;;27.60;18.40;;;;;;;2.15;76.05;95795.72;104688;1262;99369;-80
2024/04/17 00:40:48;;;;;;;22.40;15.50;;;;;;;2.18;76.03;95798.91;104685;1269;99327;-80
2024/04/17 00:43:14;;;;;;;17.60;13.10;;;;;;;2.19;76.13;95797.36;104687;1269;99339;-80
2024/04/17 00:45:43;;;;;;;19.20;11.70;;;;;;;2.19;76.11;95800.15;104689;1263;100290;-82
2024/04/17 00:48:12;;;;;;;14.30;7.30;;;;;;;2.16;76.08;95791.17;104715;1267;99314;-84
2024/04/17 00:50:48;;;;;;;8.90;5.20;;;;;;;2.14;76.16;95796.00;104721;1260;99801;-83
2024/04/17 00:53:18;;;;;;;8.60;5.70;;;;;;;2.13;76.16;95794.63;104716;1260;105144;-83
2024/04/17 00:55:46;;;;;;;7.20;5.40;;;;;;;2.10;76.12;95791.58;104717;1260;101438;-83
2024/04/17 00:58:14;;;;;;;11.50;6.20;;;;;;;2.08;76.16;95790.02;104598;1258;99953;-83
2024/04/17 01:00:40;;;;;;;14.30;7.90;;;;;;;2.06;76.16;95789.72;104710;1278;99301;-82
2024/04/17 01:03:07;;;;;;;12.20;6.30;;;;;;;1.99;76.14;95786.45;104627;1260;99278;-83
2024/04/17 01:05:33;;;;;;;9.90;5.80;;;;;;;1.96;76.17;95778.69;104675;1267;99196;-81
2024/04/17 01:08:01;;;;;;;15.80;9.20;;;;;;;2.00;76.24;95772.73;104776;1264;100571;-80
2024/04/17 01:10:27;;;;;;;19.10;9.00;;;;;;;2.01;76.31;95778.56;104496;1273;99401;-80
2024/04/17 01:12:53;;;;;;;22.50;12.30;;;;;;;2.00;76.24;95777.63;104691;1270;99330;-80
2024/04/17 01:15:21;;;;;;;50.70;27.70;;;;;;;1.96;76.14;95776.94;104646;1263;99305;-80
2024/04/17 01:17:48;;;;;;;35.30;18.40;;;;;;;1.93;76.11;95775.05;104662;1270;99231;-82
2024/04/17 01:20:15;;;;;;;28.50;16.20;;;;;;;1.91;76.13;95772.27;104676;1261;99288;-82
2024/04/17 01:22:41;;;;;;;57.20;32.60;;;;;;;1.89;76.19;95769.84;104652;1261;99410;-83
2024/04/17 01:25:07;;;;;;;34.80;18.80;;;;;;;1.84;76.17;95766.77;104625;1261;104744;-82
2024/04/17 01:27:34;;;;;;;22.70;13.10;;;;;;;1.79;76.21;95760.29;104696;1270;99305;-82
2024/04/17 01:30:00;;;;;;;19.80;9.80;;;;;;;1.78;76.31;95749.98;104550;1263;174982;-82
2024/04/17 01:32:26;;;;;;;15.50;7.80;;;;;;;1.77;76.20;95750.05;104700;1270;100610;-81
2024/04/17 01:34:53;;;;;;;12.90;7.20;;;;;;;1.74;76.20;95748.30;104632;1270;104414;-82
2024/04/17 01:37:19;;;;;;;13.60;8.60;;;;;;;1.73;76.27;95748.34;104622;1270;99268;-82
2024/04/17 01:39:45;;;;;;;8.90;5.60;;;;;;;1.68;76.37;95743.52;104667;1269;99311;-82
2024/04/17 01:42:12;;;;;;;6.10;4.10;;;;;;;1.56;76.37;95744.32;104774;1270;99264;-82
2024/04/17 01:44:38;;;;;;;7.20;4.50;;;;;;;1.53;76.52;95743.29;104635;1259;105097;-83
2024/04/17 01:47:04;;;;;;;9.00;4.70;;;;;;;1.50;76.58;95740.14;104622;1263;99270;-81
2024/04/17 01:49:31;;;;;;;9.50;4.20;;;;;;;1.48;76.77;95738.63;104679;1260;99228;-80
2024/04/17 01:51:57;;;;;;;6.30;4.10;;;;;;;1.50;76.77;95737.85;104712;1270;99279;-81
2024/04/17 01:54:24;;;;;;;6.70;4.20;;;;;;;1.51;76.79;95741.42;104670;1257;104810;-80
2024/04/17 01:56:51;;;;;;;7.00;4.10;;;;;;;1.52;76.92;95742.78;104756;1257;100582;-81
2024/04/17 01:59:18;;;;;;;10.70;5.40;;;;;;;1.46;76.73;95743.52;104639;1258;99849;-80
2024/04/17 02:01:45;;;;;;;11.50;5.80;;;;;;;1.39;76.80;95737.92;104619;1261;99419;-80
2024/04/17 02:04:12;;;;;;;7.30;4.80;;;;;;;1.39;76.90;95734.14;104684;1270;99270;-82
2024/04/17 02:06:38;;;;;;;7.70;5.10;;;;;;;1.39;76.80;95735.73;104637;1262;99374;-83
2024/04/17 02:09:04;;;;;;;10.80;6.10;;;;;;;1.37;76.80;95734.87;104584;1270;99943;-82
2024/04/17 02:11:31;;;;;;;8.50;5.70;;;;;;;1.38;76.87;95731.36;104589;1263;99371;-82
2024/04/17 02:13:57;;;;;;;10.40;5.80;;;;;;;1.36;76.96;95737.77;104666;1270;100575;-83
2024/04/17 02:16:24;;;;;;;9.00;6.50;;;;;;;1.33;76.95;95737.55;104673;1264;99216;-81
2024/04/17 02:18:50;;;;;;;13.30;7.60;;;;;;;1.30;77.00;95732.26;104671;1260;99660;-82
2024/04/17 02:21:17;;;;;;;15.30;8.00;;;;;;;1.27;77.11;95735.05;104663;1270;99165;-83
2024/04/17 02:23:47;;;;;;;18.40;9.20;;;;;;;1.18;77.21;95733.11;104702;1269;100591;-80
2024/04/17 02:26:13;;;;;;;16.30;8.80;;;;;;;1.13;77.31;95732.62;104728;1258;105086;-80
2024/04/17 02:28:39;;;;;;;19.70;8.00;;;;;;;1.10;77.34;95741.66;104607;1260;99256;-80
2024/04/17 02:31:06;;;;;;;10.50;6.00;;;;;;;1.02;77.50;95738.39;104646;1261;99250;-80
2024/04/17 02:33:33;;;;;;;14.40;7.10;;;;;;;0.98;77.58;95733.98;104730;1269;100581;-80
2024/04/17 02:36:00;;;;;;;10.90;5.80;;;;;;;0.98;77.60;95730.09;104601;1280;105045;-80
2024/04/17 02:38:26;;;;;;;12.80;6.30;;;;;;;0.99;77.75;95723.39;104576;1272;99264;-80
2024/04/17 02:40:52;;;;;;;12.60;6.30;;;;;;;0.96;77.71;95720.08;104666;1260;99385;-76
2024/04/17 02:43:19;;;;;;;11.70;6.60;;;;;;;0.91;77.74;95720.92;104682;1260;99462;-76
2024/04/17 02:45:45;;;;;;;10.90;5.90;;;;;;;0.89;77.75;95724.16;104659;1270;104769;-76
2024/04/17 02:48:11;;;;;;;10.50;5.20;;;;;;;0.89;77.88;95721.60;104671;1279;99256;-75
2024/04/17 02:50:41;;;;;;;7.70;4.90;;;;;;;0.93;77.88;95719.39;104674;1260;99232;-76
2024/04/17 02:53:08;;;;;;;11.00;5.50;;;;;;;0.95;77.89;95717.50;104647;1263;99314;-75
2024/04/17 02:55:35;;;;;;;9.20;5.40;;;;;;;0.94;77.98;95710.45;104688;1258;99294;-75
2024/04/17 02:58:01;;;;;;;11.80;5.80;;;;;;;0.87;78.12;95708.63;104562;1266;99209;-75
2024/04/17 03:00:30;;;;;;;10.70;5.70;;;;;;;0.81;78.21;95705.12;104621;1271;99292;-79
2024/04/17 03:02:56;;;;;;;12.30;5.20;;;;;;;0.80;78.40;95703.88;104659;1270;99291;-83
2024/04/17 03:05:26;;;;;;;6.00;5.00;;;;;;;0.75;78.51;95703.79;104701;1261;99408;-83
2024/04/17 03:07:52;;;;;;;8.90;4.90;;;;;;;0.76;78.57;95698.40;104683;1256;99222;-83
2024/04/17 03:10:19;;;;;;;10.80;5.40;;;;;;;0.75;78.65;95696.68;104697;1261;99247;-84
2024/04/17 03:12:45;;;;;;;7.80;4.70;;;;;;;0.74;78.79;95694.71;104732;1270;99257;-83
2024/04/17 03:15:12;;;;;;;10.10;5.10;;;;;;;0.75;78.85;95699.58;104677;1261;99253;-83
2024/04/17 03:17:39;;;;;;;8.10;4.60;;;;;;;0.77;79.02;95696.66;104623;1270;99785;-75
2024/04/17 03:20:07;;;;;;;8.80;5.00;;;;;;;0.79;79.20;95699.49;104756;1260;104992;-75
2024/04/17 03:22:34;;;;;;;9.30;5.20;;;;;;;0.80;79.29;95703.75;104685;1270;99299;-76
2024/04/17 03:25:01;;;;;;;7.80;4.90;;;;;;;0.82;79.33;95699.94;104693;1270;99282;-75
2024/04/17 03:27:27;;;;;;;10.40;5.00;;;;;;;0.86;79.31;95695.70;104581;1258;99263;-76
2024/04/17 03:29:53;;;;;;;9.30;4.80;;;;;;;0.90;79.44;95702.20;104723;1260;100594;-75
2024/04/17 03:32:20;;;;;;;8.40;5.00;;;;;;;0.92;79.48;95706.39;104691;1260;101807;-75
2024/04/17 03:34:49;;;;;;;9.00;4.40;;;;;;;0.97;79.51;95707.67;104669;1270;99314;-75
2024/04/17 03:37:16;;;;;;;8.30;4.60;;;;;;;1.03;79.53;95705.21;104711;1260;99294;-75
2024/04/17 03:39:42;;;;;;;8.70;4.70;;;;;;;1.08;79.53;95707.68;104634;1257;99259;-76
2024/04/17 03:42:08;;;;;;;9.30;5.40;;;;;;;1.13;79.58;95704.48;104648;1268;99189;-75
2024/04/17 03:44:35;;;;;;;9.20;5.00;;;;;;;1.21;79.67;95702.63;104698;1260;99337;-76
2024/04/17 03:47:01;;;;;;;10.70;4.70;;;;;;;1.26;79.57;95702.61;104658;1270;100557;-72
2024/04/17 03:49:27;;;;;;;13.90;5.90;;;;;;;1.31;79.62;95707.12;104601;1256;99260;-72
2024/04/17 03:51:54;;;;;;;14.80;6.00;;;;;;;1.34;79.66;95707.98;104642;1270;99328;-72
2024/04/17 03:54:20;;;;;;;10.50;6.00;;;;;;;1.34;79.70;95713.13;104622;1261;99330;-73
2024/04/17 03:56:46;;;;;;;8.90;5.40;;;;;;;1.34;79.61;95714.59;104593;1261;99275;-72
2024/04/17 03:59:13;;;;;;;14.00;5.90;;;;;;;1.34;79.56;95721.96;104672;1257;99390;-76
2024/04/17 04:01:39;;;;;;;14.60;7.00;;;;;;;1.35;79.76;95721.98;104658;1270;99282;-76
2024/04/17 04:04:05;;;;;;;18.00;7.90;;;;;;;1.40;79.71;95727.70;104717;1261;99269;-72
2024/04/17 04:06:32;;;;;;;14.90;6.80;;;;;;;1.45;79.69;95732.42;104661;1259;99359;-72
2024/04/17 04:08:58;;;;;;;15.50;9.20;;;;;;;1.49;79.75;95734.29;104640;1270;99265;-72
2024/04/17 04:11:24;;;;;;;16.50;8.90;;;;;;;1.49;79.62;95733.52;104653;1260;99408;-72
2024/04/17 04:13:51;;;;;;;18.50;9.50;;;;;;;1.55;79.60;95736.54;104691;1261;99397;-72
2024/04/17 04:16:17;;;;;;;16.80;9.20;;;;;;;1.60;79.61;95737.25;104695;1257;99257;-71
2024/04/17 04:18:44;;;;;;;19.30;8.70;;;;;;;1.65;79.72;95737.49;104698;1270;99537;-83
2024/04/17 04:21:10;;;;;;;16.20;8.30;;;;;;;1.67;79.73;95741.23;104673;1260;99346;-83
2024/04/17 04:23:36;;;;;;;25.60;16.70;;;;;;;1.71;79.57;95745.55;104716;1261;99791;-82
2024/04/17 04:26:03;;;;;;;18.80;13.70;;;;;;;1.74;79.53;95744.27;104632;1271;99293;-83
2024/04/17 04:28:29;;;;;;;20.40;14.40;;;;;;;1.80;79.66;95751.27;104718;1260;99238;-81
2024/04/17 04:30:56;;;;;;;23.00;13.50;;;;;;;1.85;79.53;95751.79;104708;1262;99273;-83
2024/04/17 04:33:22;;;;;;;18.20;10.70;;;;;;;1.88;79.56;95753.69;104707;1263;99288;-82
2024/04/17 04:35:48;;;;;;;21.70;10.50;;;;;;;1.91;79.48;95749.91;104658;1257;99356;-83
2024/04/17 04:38:15;;;;;;;16.50;10.00;;;;;;;1.95;79.46;95747.79;104658;1261;99339;-83
2024/04/17 04:40:42;;;;;;;22.30;9.40;;;;;;;1.98;79.50;95747.40;104562;1272;99343;-84
2024/04/17 04:43:08;;;;;;;18.70;8.20;;;;;;;2.00;79.42;95751.05;104681;1260;99711;-82
2024/04/17 04:45:34;;;;;;;18.40;9.30;;;;;;;2.02;79.33;95754.67;104672;1261;99401;-83
2024/04/17 04:48:01;;;;;;;24.70;11.40;;;;;;;2.08;79.26;95754.27;104580;1264;99249;-82
2024/04/17 04:50:27;;;;;;;19.20;11.60;;;;;;;2.12;79.33;95751.80;104685;1276;99325;-81
2024/04/17 04:52:53;;;;;;;23.70;10.70;;;;;;;2.18;79.43;95751.40;104724;1266;99382;-82
2024/04/17 04:55:20;;;;;;;18.00;9.90;;;;;;;2.23;79.52;95754.73;104656;1270;99251;-82
2024/04/17 04:57:46;;;;;;;21.50;10.30;;;;;;;2.30;79.56;95754.17;104655;1260;99263;-83
2024/04/17 05:00:13;;;;;;;17.50;8.80;;;;;;;2.36;79.65;95751.51;104699;1258;99333;-83
2024/04/17 05:02:39;;;;;;;19.80;10.00;;;;;;;2.39;79.62;95755.20;104775;1261;99685;-75
2024/04/17 05:05:06;;;;;;;18.10;8.90;;;;;;;2.40;79.69;95754.61;104671;1275;99284;-75
2024/04/17 05:07:34;;;;;;;18.10;9.30;;;;;;;2.44;79.69;95754.08;104670;1257;99403;-75
2024/04/17 05:10:02;;;;;;;18.80;9.60;;;;;;;2.49;79.75;95753.23;104673;1270;104824;-75
2024/04/17 05:12:28;;;;;;;13.70;7.70;;;;;;;2.55;79.72;95755.40;104774;1257;99269;-75
2024/04/17 05:14:54;;;;;;;14.20;7.00;;;;;;;2.60;79.77;95749.42;104685;1257;99330;-71
2024/04/17 05:17:21;;;;;;;12.50;6.30;;;;;;;2.64;79.81;95748.13;104746;1270;99384;-71
2024/04/17 05:19:47;;;;;;;12.10;6.20;;;;;;;2.69;79.81;95754.08;104789;1270;103951;-71
2024/04/17 05:22:13;;;;;;;12.70;6.20;;;;;;;2.73;79.83;95753.88;104696;1270;99276;-71
2024/04/17 05:24:40;;;;;;;12.80;6.40;;;;;;;2.77;79.70;95754.86;104662;1268;100477;-71
2024/04/17 05:27:06;;;;;;;16.60;8.70;;;;;;;2.83;79.79;95752.86;104758;1261;99176;-71
2024/04/17 05:29:32;;;;;;;15.60;7.90;;;;;;;2.87;79.93;95749.98;104680;1261;105057;-71
2024/04/17 05:31:59;;;;;;;12.90;6.50;;;;;;;2.92;79.83;95755.01;104670;1264;99400;-72
2024/04/17 05:34:25;;;;;;;10.40;7.00;;;;;;;2.96;79.85;95750.76;104579;1271;99290;-72
2024/04/17 05:36:51;;;;;;;16.90;10.80;;;;;;;3.04;79.95;95758.25;104606;1263;99415;-71
2024/04/17 05:39:18;;;;;;;22.20;13.10;;;;;;;3.09;80.09;95761.13;104635;1261;104680;-71
2024/04/17 05:41:44;;;;;;;18.20;10.10;;;;;;;3.13;80.12;95759.48;104664;1257;99173;-72
2024/04/17 05:44:11;;;;;;;17.90;9.50;;;;;;;3.17;80.08;95762.27;104542;1257;99373;-71
2024/04/17 05:46:37;;;;;;;25.80;12.70;;;;;;;3.23;80.08;95763.52;104640;1271;99313;-75
2024/04/17 05:49:03;;;;;;;26.00;13.10;;;;;;;3.24;80.18;95759.35;104605;1264;104733;-75
2024/04/17 05:51:30;;;;;;;19.00;10.60;;;;;;;3.29;80.15;95758.33;104663;1260;99314;-75
2024/04/17 05:53:56;;;;;;;24.20;11.90;;;;;;;3.34;80.04;95757.23;104654;1272;99291;-75
2024/04/17 05:56:23;;;;;;;18.40;11.70;;;;;;;3.39;80.00;95752.79;104654;1270;99337;-75
2024/04/17 05:58:49;;;;;;;20.20;11.60;;;;;;;3.45;79.97;95753.73;104576;1260;103924;-75
2024/04/17 06:01:15;;;;;;;26.80;16.50;;;;;;;3.49;80.06;95754.11;104637;1260;99295;-75
2024/04/17 06:03:42;;;;;;;36.30;20.40;;;;;;;3.51;80.02;95752.40;104562;1276;100465;-75
2024/04/17 06:06:08;;;;;;;34.70;18.50;;;;;;;3.56;80.18;95753.44;104645;1270;99399;-75
2024/04/17 06:08:34;;;;;;;71.50;50.10;;;;;;;3.61;80.21;95755.27;104629;1261;103393;-75
2024/04/17 06:11:01;;;;;;;41.50;27.70;;;;;;;3.67;80.13;95757.72;104643;1260;99275;-75
2024/04/17 06:13:27;;;;;;;25.90;14.50;;;;;;;3.73;80.19;95760.58;104640;1259;99279;-75
2024/04/17 06:15:54;;;;;;;23.60;14.80;;;;;;;3.78;80.02;95762.21;104736;1260;99227;-72
2024/04/17 06:18:20;;;;;;;28.40;16.70;;;;;;;3.82;79.87;95761.67;104617;1268;104942;-71
2024/04/17 06:20:46;;;;;;;28.90;13.10;;;;;;;3.90;79.95;95766.04;104677;1264;100456;-72
2024/04/17 06:23:13;;;;;;;19.80;10.50;;;;;;;3.94;79.82;95759.59;104660;1260;99253;-72
2024/04/17 06:25:45;;;;;;;21.70;11.70;;;;;;;4.02;79.82;95764.08;104735;1271;99173;-71
2024/04/17 06:28:11;;;;;;;23.70;12.80;;;;;;;4.10;79.88;95766.39;104755;1270;105029;-72
2024/04/17 06:30:37;;;;;;;41.70;22.20;;;;;;;4.17;79.94;95765.39;104704;1263;99277;-71
2024/04/17 06:33:04;;;;;;;26.80;13.30;;;;;;;4.24;79.61;95763.01;104637;1256;99385;-71
2024/04/17 06:35:30;;;;;;;18.60;10.40;;;;;;;4.32;79.43;95761.50;104708;1260;99358;-71
2024/04/17 06:37:56;;;;;;;21.20;10.10;;;;;;;4.41;79.43;95759.41;104687;1271;104438;-71
2024/04/17 06:40:23;;;;;;;18.90;8.90;;;;;;;4.51;79.30;95754.38;104670;1257;100585;-72
2024/04/17 06:42:49;;;;;;;32.60;18.40;;;;;;;4.60;79.14;95755.19;104691;1260;99282;-71
2024/04/17 06:45:16;;;;;;;37.50;21.90;;;;;;;4.70;79.17;95751.14;104726;1257;100136;-71
2024/04/17 06:47:43;;;;;;;34.40;22.50;;;;;;;4.80;79.03;95757.59;104707;1257;104016;-72
2024/04/17 06:50:10;;;;;;;32.80;20.20;;;;;;;4.88;78.87;95760.53;104724;1260;99257;-72
2024/04/17 06:52:37;;;;;;;40.10;19.80;;;;;;;4.96;78.84;95760.56;104762;1257;99247;-81
2024/04/17 06:55:03;;;;;;;30.80;17.30;;;;;;;5.01;78.61;95764.31;104863;1270;99374;-82
2024/04/17 06:57:30;;;;;;;32.20;17.80;;;;;;;5.02;78.31;95767.48;104686;1260;99247;-83
2024/04/17 06:59:56;;;;;;;33.50;18.40;;;;;;;5.05;78.25;95765.73;104791;1259;99314;-83
2024/04/17 07:02:23;;;;;;;29.30;17.20;;;;;;;5.11;78.19;95766.67;104608;1260;99317;-75
2024/04/17 07:04:49;;;;;;;28.80;16.90;;;;;;;5.16;78.20;95771.95;104660;1257;99356;-75
2024/04/17 07:07:15;;;;;;;30.50;16.00;;;;;;;5.21;78.12;95773.30;104660;1257;99263;-75
2024/04/17 07:09:43;;;;;;;26.10;15.50;;;;;;;5.28;78.02;95778.81;104788;1259;99255;-72
2024/04/17 07:12:10;;;;;;;28.90;15.60;;;;;;;5.33;77.90;95776.45;104676;1257;99597;-72
2024/04/17 07:14:36;;;;;;;29.50;15.80;;;;;;;5.37;77.87;95771.73;104641;1271;99361;-72
2024/04/17 07:17:03;;;;;;;21.70;14.50;;;;;;;5.41;77.82;95771.48;104708;1279;99269;-72
2024/04/17 07:19:29;;;;;;;22.10;13.20;;;;;;;5.46;77.73;95774.79;104812;1259;99266;-72
2024/04/17 07:21:55;;;;;;;26.60;14.40;;;;;;;5.51;77.70;95775.11;104832;1269;99916;-71
2024/04/17 07:24:23;;;;;;;20.60;13.30;;;;;;;5.56;77.53;95774.90;104657;1260;99273;-72
2024/04/17 07:26:54;;;;;;;25.60;12.90;;;;;;;5.62;77.50;95776.05;104748;1273;99263;-72
2024/04/17 07:29:21;;;;;;;31.90;23.00;;;;;;;5.66;77.40;95778.13;104671;1257;105248;-72
2024/04/17 07:31:48;;;;;;;46.10;34.30;;;;;;;5.70;77.22;95781.82;104685;1259;99318;-80
2024/04/17 07:34:15;;;;;;;69.40;50.30;;;;;;;5.73;77.07;95779.90;104743;1257;99859;-79
2024/04/17 07:36:41;;;;;;;63.40;50.70;;;;;;;5.78;77.01;95782.45;104661;1260;100597;-79
2024/04/17 07:39:10;;;;;;;37.60;24.90;;;;;;;5.83;76.80;95789.97;104848;1257;99302;-79
2024/04/17 07:41:37;;;;;;;22.40;15.50;;;;;;;5.85;76.62;95787.11;104730;1270;101434;-80
2024/04/17 07:44:04;;;;;;;18.90;11.80;;;;;;;5.87;76.42;95792.30;104650;1257;99282;-80
2024/04/17 07:46:30;;;;;;;15.90;10.70;;;;;;;5.87;76.25;95791.68;104786;1259;99345;-79
2024/04/17 07:48:56;;;;;;;17.80;10.20;;;;;;;5.92;76.39;95791.20;104791;1258;99250;-79
2024/04/17 07:51:23;;;;;;;21.80;9.90;;;;;;;5.98;76.24;95790.15;104703;1257;101692;-79
2024/04/17 07:53:50;;;;;;;17.20;10.30;;;;;;;6.04;76.29;95787.94;104573;1269;99319;-80
2024/04/17 07:56:16;;;;;;;16.30;11.00;;;;;;;6.12;76.17;95783.46;104645;1273;99269;-79
2024/04/17 07:58:42;;;;;;;20.50;11.20;;;;;;;6.17;76.08;95784.79;104753;1257;99251;-79
2024/04/17 08:01:10;;;;;;;16.90;10.40;;;;;;;6.24;75.86;95788.42;104737;1257;101424;-79
2024/04/17 08:03:37;;;;;;;15.60;9.20;;;;;;;6.31;75.72;95789.79;104666;1256;99301;-79
2024/04/17 08:06:03;;;;;;;15.40;8.80;;;;;;;6.39;75.60;95791.14;104657;1274;99455;-79
2024/04/17 08:08:30;;;;;;;14.30;7.50;;;;;;;6.46;75.20;95800.46;104682;1270;99453;-79
2024/04/17 08:10:56;;;;;;;14.90;7.80;;;;;;;6.54;74.80;95808.23;104708;1261;100501;-80
2024/04/17 08:13:23;;;;;;;12.60;7.30;;;;;;;6.60;74.60;95808.00;104584;1263;99759;-80
2024/04/17 08:15:52;;;;;;;18.30;7.50;;;;;;;6.67;74.49;95808.61;104658;1257;100990;-81
2024/04/17 08:18:18;;;;;;;13.30;6.40;;;;;;;6.71;74.39;95808.11;104738;1256;99766;-82
2024/04/17 08:20:45;;;;;;;9.60;6.30;;;;;;;6.76;74.05;95807.75;104654;1275;99280;-81
2024/04/17 08:23:12;;;;;;;10.80;5.80;;;;;;;6.82;73.99;95807.23;104668;1261;99778;-82
2024/04/17 08:25:41;;;;;;;11.00;6.70;;;;;;;6.89;73.79;95807.34;104797;1259;99343;-82
2024/04/17 08:28:09;;;;;;;13.60;7.00;;;;;;;6.97;73.62;95805.76;104683;1259;99257;-72
2024/04/17 08:30:36;;;;;;;10.00;6.20;;;;;;;7.03;73.59;95804.39;104598;1260;100578;-72
2024/04/17 08:33:02;;;;;;;11.70;7.00;;;;;;;7.05;73.26;95804.67;104637;1279;99356;-72
2024/04/17 08:35:28;;;;;;;9.60;6.80;;;;;;;7.06;73.06;95803.63;104683;1279;99739;-72
2024/04/17 08:37:55;;;;;;;11.00;6.50;;;;;;;7.06;72.97;95809.16;104735;1259;100758;-72
2024/04/17 08:40:21;;;;;;;20.10;13.20;;;;;;;7.06;72.94;95812.92;104674;1259;100579;-72
2024/04/17 08:42:51;;;;;;;10.30;7.80;;;;;;;7.08;73.02;95818.92;104656;1259;99322;-72
2024/04/17 08:45:32;;;;;;;9.90;5.70;;;;;;;7.09;73.20;95820.77;104689;1261;100335;-73
2024/04/17 08:48:02;;;;;;;8.40;5.50;;;;;;;7.10;73.20;95820.71;104694;1259;99386;-72
2024/04/17 08:50:30;;;;;;;11.70;5.90;;;;;;;7.08;73.21;95823.91;104658;1260;99266;-72
2024/04/17 08:53:02;;;;;;;9.20;6.10;;;;;;;7.03;73.21;95823.16;104698;1261;99836;-73
2024/04/17 08:55:30;;;;;;;9.70;6.40;;;;;;;6.93;73.49;95823.38;104787;1259;104885;-73
2024/04/17 08:57:57;;;;;;;10.80;6.90;;;;;;;6.85;73.86;95823.44;104764;1259;101555;-72
2024/04/17 09:00:25;;;;;;;8.80;6.40;;;;;;;6.80;74.18;95827.55;104735;1259;99430;-73
2024/04/17 09:02:56;;;;;;;13.00;8.20;;;;;;;6.84;74.75;95826.27;104689;1260;99234;-72
2024/04/17 09:05:27;;;;;;;13.90;9.10;;;;;;;6.90;74.81;95834.40;104734;1259;100211;-77
2024/04/17 09:07:54;;;;;;;11.60;9.50;;;;;;;6.79;74.61;95844.64;104666;1260;103945;-77
2024/04/17 09:10:21;;;;;;;12.50;9.80;;;;;;;6.74;74.61;95848.64;104672;1260;99263;-76
2024/04/17 09:12:48;;;;;;;13.50;9.80;;;;;;;6.66;74.54;95854.50;104612;1260;99262;-76
2024/04/17 09:15:15;;;;;;;12.20;9.00;;;;;;;6.64;74.82;95859.79;104670;1259;99264;-76
2024/04/17 09:17:42;;;;;;;12.00;9.90;;;;;;;6.66;74.71;95863.52;104720;1260;99177;-72
2024/04/17 09:20:09;;;;;;;11.40;9.00;;;;;;;6.64;74.69;95864.84;104765;1257;99295;-72
2024/04/17 09:22:36;;;;;;;12.50;10.00;;;;;;;6.64;74.86;95867.10;104783;1260;99253;-72
2024/04/17 09:25:11;;;;;;;12.80;9.30;;;;;;;6.67;75.11;95870.40;104656;1260;99346;-72
2024/04/17 09:27:38;;;;;;;9.10;7.00;;;;;;;6.67;74.96;95867.84;104671;1260;100960;-72
2024/04/17 09:30:05;;;;;;;7.50;6.40;;;;;;;6.67;74.92;95869.73;104769;1256;99254;-73
2024/04/17 09:32:32;;;;;;;6.20;5.60;;;;;;;6.64;74.76;95871.44;104691;1258;99276;-73
2024/04/17 09:34:59;;;;;;;8.00;5.70;;;;;;;6.58;74.70;95864.82;104648;1259;100590;-71
2024/04/17 09:37:26;;;;;;;9.00;6.30;;;;;;;6.58;74.89;95871.63;104688;1256;99260;-72
2024/04/17 09:40:03;;;;;;;7.50;5.10;;;;;;;6.61;74.87;95873.25;104751;1259;99263;-72
2024/04/17 09:42:30;;;;;;;7.10;5.40;;;;;;;6.65;74.85;95871.25;104716;1260;100490;-72
2024/04/17 09:45:00;;;;;;;5.90;5.20;;;;;;;6.72;75.02;95875.23;104687;1259;99451;-77
2024/04/17 09:47:30;;;;;;;7.10;5.40;;;;;;;6.77;74.95;95873.38;104734;1259;99356;-82
2024/04/17 09:49:59;;;;;;;5.10;4.50;;;;;;;6.77;74.74;95875.35;104680;1260;99769;-81
2024/04/17 09:52:30;;;;;;;5.70;5.20;;;;;;;6.76;74.86;95875.38;104724;1259;104924;-81
2024/04/17 09:54:56;;;;;;;6.10;4.80;;;;;;;6.80;74.73;95878.45;104685;1257;101528;-82
2024/04/17 09:57:23;;;;;;;5.90;4.60;;;;;;;6.84;74.50;95873.59;104661;1257;99189;-81
2024/04/17 09:59:50;;;;;;;5.00;4.50;;;;;;;6.84;74.09;95873.71;104695;1259;100593;-81
2024/04/17 10:02:17;;;;;;;6.00;5.20;;;;;;;6.83;74.00;95876.94;104671;1261;99271;-81
2024/04/17 10:04:46;;;;;;;9.70;5.80;;;;;;;6.78;74.17;95879.30;104742;1259;99323;-73
2024/04/17 10:07:14;;;;;;;5.90;4.80;;;;;;;6.67;74.18;95878.70;104680;1259;99378;-82
2024/04/17 10:09:41;;;;;;;7.40;5.10;;;;;;;6.60;74.29;95882.33;104679;1257;99753;-82
2024/04/17 10:12:11;;;;;;;5.50;5.00;;;;;;;6.59;74.42;95887.21;104771;1259;99269;-81
2024/04/17 10:14:39;;;;;;;6.10;5.20;;;;;;;6.55;74.61;95882.01;104713;1259;99333;-81
2024/04/17 10:17:07;;;;;;;7.60;6.50;;;;;;;6.55;74.80;95883.65;104694;1259;99358;-81
2024/04/17 10:19:37;;;;;;;6.50;5.10;;;;;;;6.58;74.89;95882.84;104714;1259;101375;-81
2024/04/17 10:22:07;;;;;;;13.60;7.90;;;;;;;6.62;74.85;95880.71;104769;1259;100581;-80
2024/04/17 10:24:33;;;;;;;7.20;5.10;;;;;;;6.66;74.73;95884.27;104659;1261;99357;-80
2024/04/17 10:27:04;;;;;;;7.50;5.90;;;;;;;6.73;74.56;95884.90;104701;1257;99711;-81
2024/04/17 10:29:31;;;;;;;7.20;5.50;;;;;;;6.77;74.47;95885.88;104735;1259;104837;-80
2024/04/17 10:31:59;;;;;;;7.40;5.70;;;;;;;6.85;74.48;95885.58;104768;1259;99202;-80
2024/04/17 10:34:44;;;;;;;6.70;5.60;;;;;;;6.99;74.63;95880.33;104622;1273;99276;-78
2024/04/17 10:37:11;;;;;;;6.80;5.70;;;;;;;7.11;74.48;95883.66;104636;1259;99269;-80
2024/04/17 10:39:39;;;;;;;6.10;5.10;;;;;;;7.13;74.02;95885.05;104731;1273;99359;-81
2024/04/17 10:42:13;;;;;;;5.40;4.80;;;;;;;7.14;73.82;95888.67;104804;1259;103847;-81
2024/04/17 10:44:46;;;;;;;5.60;4.90;;;;;;;7.17;73.31;95889.34;104697;1258;101491;-81
2024/04/17 10:47:25;;;;;;;7.20;5.80;;;;;;;7.17;72.97;95891.29;104640;1259;99676;-80
2024/04/17 10:50:02;;;;;;;7.20;6.00;;;;;;;7.18;73.02;95893.74;104614;1261;99320;-80
2024/04/17 10:52:31;;;;;;;5.40;4.70;;;;;;;7.20;72.96;95895.67;104757;1259;99720;-79
2024/04/17 10:54:59;;;;;;;8.50;6.10;;;;;;;7.31;73.13;95890.94;104690;1257;104908;-79
2024/04/17 10:57:28;;;;;;;8.40;6.60;;;;;;;7.45;73.62;95887.85;104754;1270;101361;-80
2024/04/17 10:59:55;;;;;;;7.20;6.50;;;;;;;7.68;73.57;95890.85;104680;1260;99291;-80
2024/04/17 11:02:22;;;;;;;13.80;9.60;;;;;;;7.84;73.06;95895.39;104697;1271;99320;-79
2024/04/17 11:04:50;;;;;;;9.80;7.50;;;;;;;7.79;72.91;95886.55;104713;1259;99302;-77
2024/04/17 11:07:16;;;;;;;14.30;8.80;;;;;;;7.94;73.27;95887.97;104720;1270;99765;-76
2024/04/17 11:09:43;;;;;;;14.70;10.60;;;;;;;8.18;73.04;95890.61;104762;1274;99270;-77
2024/04/17 11:12:18;;;;;;;12.30;10.10;;;;;;;8.26;72.84;95890.89;104688;1273;99341;-77
2024/04/17 11:14:45;;;;;;;9.60;7.90;;;;;;;8.34;72.26;95895.40;104669;1259;99263;-77
2024/04/17 11:17:12;;;;;;;9.40;8.30;;;;;;;8.49;71.65;95898.17;104670;1260;99258;-78
2024/04/17 11:19:40;;;;;;;9.70;8.70;;;;;;;8.69;71.40;95899.54;104660;1258;99275;-80
2024/04/17 11:22:16;;;;;;;11.50;10.30;;;;;;;8.88;71.01;95899.34;104652;1276;101799;-80